createdAt,value
2019-03-10T00:01:53.232Z,4.40
2019-03-10T00:06:58.426Z,4.27
2019-03-10T00:12:03.601Z,4.03
2019-03-10T00:17:08.970Z,5.03
2019-03-10T00:22:14.216Z,3.40
2019-03-10T00:27:38.550Z,1.50
2019-03-10T00:32:43.826Z,1.13
2019-03-10T00:37:49.143Z,1.40
2019-03-10T00:42:57.401Z,1.20
2019-03-10T00:48:05.575Z,0.93
2019-03-10T00:53:10.707Z,1.47
2019-03-10T00:58:16.523Z,1.47
2019-03-10T01:03:21.691Z,1.07
2019-03-10T01:08:27.413Z,2.00
2019-03-10T01:13:32.580Z,1.30
2019-03-10T01:18:58.605Z,1.13
2019-03-10T01:24:03.924Z,1.73
2019-03-10T01:29:09.182Z,1.40
2019-03-10T01:34:15.707Z,1.27
2019-03-10T01:39:20.974Z,2.10
2019-03-10T01:44:26.319Z,1.77
2019-03-10T01:49:31.450Z,1.73
2019-03-10T01:54:36.703Z,1.80
2019-03-10T01:59:41.780Z,1.80
2019-03-10T02:04:46.916Z,1.60
2019-03-10T02:09:52.706Z,1.63
2019-03-10T02:14:58.706Z,1.57
2019-03-10T02:20:07.081Z,1.60
2019-03-10T02:25:13.201Z,2.87
2019-03-10T02:30:19.573Z,2.90
2019-03-10T02:35:25.138Z,4.70
2019-03-10T02:40:30.685Z,4.53
2019-03-10T02:45:37.073Z,4.77
2019-03-10T02:50:43.743Z,4.97
2019-03-10T02:55:49.445Z,4.73
2019-03-10T03:00:55.210Z,4.17
2019-03-10T03:06:00.564Z,3.80
2019-03-10T03:11:05.486Z,3.83
2019-03-10T03:16:11.154Z,2.97
2019-03-10T03:21:43.110Z,2.70
2019-03-10T03:26:42.686Z,2.50
2019-03-10T03:31:47.841Z,2.17
2019-03-10T03:36:52.788Z,1.20
2019-03-10T03:41:57.942Z,1.87
2019-03-10T03:47:03.115Z,1.57
2019-03-10T03:52:08.582Z,1.97
2019-03-10T03:57:13.806Z,1.77
2019-03-10T04:02:21.010Z,1.70
2019-03-10T04:07:27.206Z,1.93
2019-03-10T04:12:32.691Z,1.80
2019-03-10T04:17:38.216Z,1.73
2019-03-10T04:22:43.398Z,2.03
2019-03-10T04:27:49.133Z,1.63
2019-03-10T04:32:54.279Z,2.00
2019-03-10T04:37:59.909Z,1.90
2019-03-10T04:43:04.995Z,2.40
2019-03-10T04:48:10.293Z,2.27
2019-03-10T04:53:15.497Z,1.80
2019-03-10T04:58:22.564Z,2.10
2019-03-10T05:03:27.954Z,1.30
2019-03-10T05:08:33.045Z,2.03
2019-03-10T05:13:38.262Z,2.00
2019-03-10T05:18:53.427Z,1.47
2019-03-10T05:24:01.836Z,2.20
2019-03-10T05:29:06.992Z,1.93
2019-03-10T05:34:12.146Z,2.70
2019-03-10T05:39:17.289Z,2.03
2019-03-10T05:44:22.700Z,2.10
2019-03-10T05:49:27.800Z,2.07
2019-03-10T05:54:33.081Z,2.27
2019-03-10T05:59:38.282Z,1.63
2019-03-10T06:04:44.884Z,2.47
2019-03-10T06:09:50.238Z,2.20
2019-03-10T06:14:55.310Z,2.10
2019-03-10T06:20:00.415Z,2.30
2019-03-10T06:25:07.071Z,1.43
2019-03-10T06:30:13.125Z,1.83
2019-03-10T06:35:18.202Z,2.43
2019-03-10T06:40:31.584Z,1.90
2019-03-10T06:45:30.354Z,1.90
2019-03-10T06:50:35.628Z,1.77
2019-03-10T06:55:40.970Z,1.70
2019-03-10T07:00:46.335Z,2.40
2019-03-10T07:05:51.454Z,2.77
2019-03-10T07:10:56.663Z,1.80
2019-03-10T07:16:02.208Z,2.50
2019-03-10T07:21:07.311Z,1.90
2019-03-10T07:26:12.212Z,2.53
2019-03-10T07:31:18.879Z,2.20
2019-03-10T07:36:25.382Z,2.33
2019-03-10T07:41:32.301Z,1.83
2019-03-10T07:46:39.081Z,1.73
2019-03-10T07:51:45.583Z,2.33
2019-03-10T07:56:52.490Z,2.70
2019-03-10T08:01:59.244Z,1.80
2019-03-10T08:07:06.000Z,2.03
2019-03-10T08:12:13.083Z,2.37
2019-03-10T08:17:20.216Z,2.20
2019-03-10T08:22:26.807Z,2.80
2019-03-10T08:27:33.733Z,2.87
2019-03-10T08:32:40.617Z,2.90
2019-03-10T08:38:07.083Z,2.37
2019-03-10T08:43:13.992Z,2.13
2019-03-10T08:48:20.876Z,2.10
2019-03-10T08:53:27.553Z,2.43
2019-03-10T08:58:34.467Z,2.77
2019-03-10T09:03:41.671Z,2.43
2019-03-10T09:08:48.492Z,2.03
2019-03-10T09:13:55.536Z,2.77
2019-03-10T09:19:01.034Z,2.50
2019-03-10T09:24:26.802Z,2.90
2019-03-10T09:29:33.599Z,2.67
2019-03-10T09:34:40.523Z,2.47
2019-03-10T09:39:47.461Z,2.80
2019-03-10T09:44:54.308Z,2.23
2019-03-10T09:50:00.788Z,3.50
2019-03-10T09:55:08.644Z,2.60
2019-03-10T10:00:34.598Z,2.40
2019-03-10T10:05:41.521Z,2.70
2019-03-10T10:10:48.473Z,3.03
2019-03-10T10:15:55.376Z,2.37
2019-03-10T10:21:03.300Z,2.00
2019-03-10T10:26:11.158Z,2.63
2019-03-10T10:31:17.947Z,2.57
2019-03-10T10:36:24.462Z,2.63
2019-03-10T10:41:31.271Z,3.07
2019-03-10T10:46:38.090Z,1.80
2019-03-10T10:51:44.777Z,3.20
2019-03-10T10:56:51.934Z,3.30
2019-03-10T11:01:58.998Z,2.50
2019-03-10T11:07:24.465Z,2.73
2019-03-10T11:18:09.535Z,2.47
2019-03-10T11:23:10.924Z,2.13
2019-03-10T11:28:17.745Z,2.37
2019-03-10T11:33:24.550Z,2.70
2019-03-10T11:38:31.189Z,1.90
2019-03-10T11:43:37.947Z,2.97
2019-03-10T11:48:44.734Z,2.27
2019-03-10T11:53:51.621Z,1.80
2019-03-10T11:58:58.344Z,2.00
2019-03-10T12:04:05.156Z,2.43
2019-03-10T12:09:12.286Z,1.87
2019-03-10T12:14:18.918Z,2.10
2019-03-10T12:19:25.005Z,2.13
2019-03-10T12:24:30.102Z,1.63
2019-03-10T12:29:35.140Z,2.37
2019-03-10T12:34:40.187Z,1.93
2019-03-10T12:39:45.358Z,1.80
2019-03-10T12:44:50.454Z,2.33
2019-03-10T12:49:55.553Z,2.10
2019-03-10T12:55:00.747Z,2.30
2019-03-10T13:00:08.940Z,2.60
2019-03-10T13:05:13.953Z,1.87
2019-03-10T13:10:19.210Z,3.13
2019-03-10T13:15:24.708Z,2.80
2019-03-10T13:20:29.823Z,2.73
2019-03-10T13:25:35.083Z,2.30
2019-03-10T13:30:39.967Z,2.93
2019-03-10T13:35:45.175Z,3.57
2019-03-10T13:40:50.292Z,3.00
2019-03-10T13:45:56.469Z,3.10
2019-03-10T13:51:01.228Z,2.67
2019-03-10T13:56:06.246Z,2.97
2019-03-10T14:01:11.261Z,2.97
2019-03-10T14:06:16.613Z,3.03
2019-03-10T14:11:21.733Z,3.23
2019-03-10T14:16:26.983Z,3.03
2019-03-10T14:21:32.473Z,2.20
2019-03-10T14:26:38.475Z,2.43
2019-03-10T14:31:43.541Z,3.00
2019-03-10T14:36:48.620Z,2.70
2019-03-10T14:42:13.444Z,3.30
2019-03-10T14:47:19.516Z,3.40
2019-03-10T14:52:27.823Z,2.80
2019-03-10T14:57:32.788Z,3.50
2019-03-10T15:02:37.954Z,3.40
2019-03-10T15:07:43.404Z,4.70
2019-03-10T15:12:48.759Z,3.60
2019-03-10T15:17:54.254Z,3.50
2019-03-10T15:22:59.507Z,3.10
2019-03-10T15:28:04.564Z,3.10
2019-03-10T15:33:29.113Z,3.53
2019-03-10T15:38:35.188Z,3.60
2019-03-10T15:43:40.106Z,3.67
2019-03-10T15:48:45.377Z,2.97
2019-03-10T15:53:50.503Z,3.67
2019-03-10T15:58:55.636Z,3.47
2019-03-10T16:04:04.339Z,5.07
2019-03-10T16:09:10.172Z,5.50
2019-03-10T16:14:15.477Z,5.37
2019-03-10T16:19:21.504Z,4.70
2019-03-10T16:24:27.416Z,3.03
2019-03-10T16:29:32.800Z,2.47
2019-03-10T16:34:38.386Z,2.57
2019-03-10T16:39:43.840Z,2.90
2019-03-10T16:44:48.949Z,2.53
2019-03-10T16:49:54.059Z,2.67
2019-03-10T16:54:59.527Z,2.23
2019-03-10T17:00:07.209Z,2.93
2019-03-10T17:05:15.854Z,3.37
2019-03-10T17:10:40.806Z,2.67
2019-03-10T17:15:46.206Z,5.60
2019-03-10T17:20:51.605Z,2.30
2019-03-10T17:25:56.402Z,2.80
2019-03-10T17:31:01.227Z,2.37
2019-03-10T17:36:25.838Z,2.80
2019-03-10T17:41:30.853Z,2.83
2019-03-10T17:46:35.963Z,2.50
2019-03-10T17:51:41.115Z,3.10
2019-03-10T17:57:05.472Z,3.07
2019-03-10T18:02:29.962Z,2.10
2019-03-10T18:07:35.154Z,2.23
2019-03-10T18:12:40.921Z,2.67
2019-03-10T18:17:45.878Z,3.40
2019-03-10T18:22:51.724Z,3.90
2019-03-10T18:27:57.127Z,4.07
2019-03-10T18:33:21.646Z,5.03
2019-03-10T18:38:26.809Z,4.70
2019-03-10T18:43:32.179Z,6.00
2019-03-10T18:48:37.546Z,4.80
2019-03-10T18:53:42.577Z,6.70
2019-03-10T18:59:06.746Z,9.37
2019-03-10T19:04:23.908Z,7.90
2019-03-10T19:09:29.033Z,12.97
2019-03-10T19:14:44.229Z,10.20
2019-03-10T19:19:49.548Z,10.00
2019-03-10T19:24:54.691Z,8.00
2019-03-10T19:30:20.780Z,7.30
2019-03-10T19:35:25.905Z,7.20
2019-03-10T19:40:31.900Z,5.80
2019-03-10T19:45:37.169Z,5.10
2019-03-10T19:50:42.514Z,5.37
2019-03-10T19:56:07.435Z,5.60
2019-03-10T20:01:12.597Z,4.37
2019-03-10T20:06:17.930Z,5.43
2019-03-10T20:11:22.985Z,2.70
2019-03-10T20:16:28.199Z,6.00
2019-03-10T20:21:33.500Z,5.20
2019-03-10T20:26:57.600Z,6.07
2019-03-10T20:32:13.164Z,3.83
2019-03-10T20:37:09.242Z,4.10
2019-03-10T20:42:34.313Z,4.37
2019-03-10T20:47:39.635Z,5.40
2019-03-10T20:52:44.725Z,3.67
2019-03-10T20:57:50.498Z,3.63
2019-03-10T21:02:55.555Z,3.60
2019-03-10T21:08:01.048Z,4.90
2019-03-10T21:13:06.236Z,4.43
2019-03-10T21:18:11.219Z,4.87
2019-03-10T21:23:17.010Z,10.20
2019-03-10T21:28:22.298Z,8.53
2019-03-10T21:33:46.793Z,6.53
2019-03-10T21:38:52.239Z,6.47
2019-03-10T21:43:57.474Z,5.70
2019-03-10T21:49:02.871Z,7.30
2019-03-10T21:54:27.299Z,6.47
2019-03-10T21:59:32.241Z,7.30
2019-03-10T22:04:37.591Z,6.00
2019-03-10T22:09:42.749Z,8.77
2019-03-10T22:14:48.142Z,7.13
2019-03-10T22:19:54.094Z,9.87
2019-03-10T22:24:59.080Z,7.10
2019-03-10T22:30:05.433Z,8.10
2019-03-10T22:35:10.958Z,7.63
2019-03-10T22:40:35.747Z,6.50
2019-03-10T22:45:41.091Z,6.10
2019-03-10T22:50:46.321Z,6.40
2019-03-10T22:56:10.805Z,5.73
2019-03-10T23:01:16.243Z,5.63
2019-03-10T23:06:21.707Z,5.40
2019-03-10T23:11:27.042Z,6.53
2019-03-10T23:16:32.365Z,6.17
2019-03-10T23:21:37.842Z,7.60
2019-03-10T23:26:43.269Z,6.20
2019-03-10T23:31:48.171Z,5.67
2019-03-10T23:36:53.440Z,6.30
2019-03-10T23:41:59.164Z,5.87
2019-03-10T23:47:04.387Z,7.57
2019-03-10T23:52:09.691Z,6.23
2019-03-10T23:57:34.080Z,5.77
